sensor_id;sensor_type;location;lat;lon;timestamp;pressure;altitude;pressure_sealevel;temperature;humidity
76637;BME280;65532;52.124;5.480;2023-05-10T00:00:00;100838.66;;;11.91;0.00
76637;BME280;65532;52.124;5.480;2023-05-10T00:02:38;100833.41;;;11.84;0.00
76637;BME280;65532;52.124;5.480;2023-05-10T00:05:06;100827.59;;;11.81;0.00
76637;BME280;65532;52.124;5.480;2023-05-10T00:07:33;100826.78;;;11.80;0.00
76637;BME280;65532;52.124;5.480;2023-05-10T00:09:59;100826.41;;;11.77;0.00
76637;BME280;65532;52.124;5.480;2023-05-10T00:12:26;100831.38;;;11.80;0.00
76637;BME280;65532;52.124;5.480;2023-05-10T00:14:52;100819.59;;;11.86;0.00
76637;BME280;65532;52.124;5.480;2023-05-10T00:17:18;100829.47;;;11.92;0.00
76637;BME280;65532;52.124;5.480;2023-05-10T00:19:45;100827.81;;;11.91;0.00
76637;BME280;65532;52.124;5.480;2023-05-10T00:22:12;100825.69;;;11.93;0.00
76637;BME280;65532;52.124;5.480;2023-05-10T00:24:38;100824.53;;;11.89;0.00
76637;BME280;65532;52.124;5.480;2023-05-10T00:27:04;100828.88;;;11.90;0.00
76637;BME280;65532;52.124;5.480;2023-05-10T00:29:31;100816.97;;;11.91;0.00
76637;BME280;65532;52.124;5.480;2023-05-10T00:31:57;100819.44;;;11.92;0.00
76637;BME280;65532;52.124;5.480;2023-05-10T00:34:24;100814.59;;;11.94;0.00
76637;BME280;65532;52.124;5.480;2023-05-10T00:36:51;100814.34;;;11.96;0.00
76637;BME280;65532;52.124;5.480;2023-05-10T00:39:17;100817.63;;;11.98;0.00
76637;BME280;65532;52.124;5.480;2023-05-10T00:41:43;100819.28;;;11.99;0.00
76637;BME280;65532;52.124;5.480;2023-05-10T00:44:10;100829.09;;;12.00;0.00
76637;BME280;65532;52.124;5.480;2023-05-10T00:46:37;100827.22;;;12.01;0.00
76637;BME280;65532;52.124;5.480;2023-05-10T00:49:04;100826.97;;;12.02;0.00
76637;BME280;65532;52.124;5.480;2023-05-10T00:51:30;100827.53;;;12.04;0.00
76637;BME280;65532;52.124;5.480;2023-05-10T00:53:58;100812.91;;;12.05;0.00
76637;BME280;65532;52.124;5.480;2023-05-10T00:56:25;100817.28;;;12.06;0.00
76637;BME280;65532;52.124;5.480;2023-05-10T00:58:51;100819.16;;;12.06;0.00
76637;BME280;65532;52.124;5.480;2023-05-10T01:01:19;100825.41;;;12.06;0.00
76637;BME280;65532;52.124;5.480;2023-05-10T01:03:46;100822.69;;;12.06;0.00
76637;BME280;65532;52.124;5.480;2023-05-10T01:06:14;100824.59;;;12.06;0.00
76637;BME280;65532;52.124;5.480;2023-05-10T01:08:41;100825.41;;;12.06;0.00
76637;BME280;65532;52.124;5.480;2023-05-10T01:11:07;100827.06;;;12.07;0.00
76637;BME280;65532;52.124;5.480;2023-05-10T01:13:36;100827.06;;;12.07;0.00
76637;BME280;65532;52.124;5.480;2023-05-10T01:16:04;100818.91;;;12.07;0.00
76637;BME280;65532;52.124;5.480;2023-05-10T01:18:36;100819.50;;;12.09;0.00
76637;BME280;65532;52.124;5.480;2023-05-10T01:21:05;100820.66;;;12.13;0.00
76637;BME280;65532;52.124;5.480;2023-05-10T01:23:51;100825.00;;;12.14;0.00
76637;BME280;65532;52.124;5.480;2023-05-10T01:26:49;100823.97;;;12.15;0.00
76637;BME280;65532;52.124;5.480;2023-05-10T01:35:07;100815.91;;;12.20;0.00
76637;BME280;65532;52.124;5.480;2023-05-10T01:38:02;100822.50;;;12.24;0.00
76637;BME280;65532;52.124;5.480;2023-05-10T01:46:24;100823.09;;;12.26;0.00
76637;BME280;65532;52.124;5.480;2023-05-10T01:48:55;100831.22;;;12.26;0.00
76637;BME280;65532;52.124;5.480;2023-05-10T01:51:23;100826.63;;;12.27;0.00
76637;BME280;65532;52.124;5.480;2023-05-10T01:53:59;100825.78;;;12.26;0.00
76637;BME280;65532;52.124;5.480;2023-05-10T01:56:28;100829.56;;;12.25;0.00
76637;BME280;65532;52.124;5.480;2023-05-10T01:58:56;100828.75;;;12.25;0.00
76637;BME280;65532;52.124;5.480;2023-05-10T02:01:24;100826.28;;;12.23;0.00
76637;BME280;65532;52.124;5.480;2023-05-10T02:03:53;100824.66;;;12.22;0.00
76637;BME280;65532;52.124;5.480;2023-05-10T02:06:22;100827.94;;;12.24;0.00
76637;BME280;65532;52.124;5.480;2023-05-10T02:08:50;100821.69;;;12.24;0.00
76637;BME280;65532;52.124;5.480;2023-05-10T02:11:18;100836.06;;;12.24;0.00
76637;BME280;65532;52.124;5.480;2023-05-10T02:13:49;100838.78;;;12.24;0.00
76637;BME280;65532;52.124;5.480;2023-05-10T02:16:17;100835.00;;;12.25;0.00
76637;BME280;65532;52.124;5.480;2023-05-10T02:18:45;100833.94;;;12.26;0.00
76637;BME280;65532;52.124;5.480;2023-05-10T02:21:14;100831.22;;;12.26;0.00
76637;BME280;65532;52.124;5.480;2023-05-10T02:23:42;100835.00;;;12.25;0.00
76637;BME280;65532;52.124;5.480;2023-05-10T02:26:10;100833.38;;;12.24;0.00
76637;BME280;65532;52.124;5.480;2023-05-10T02:28:38;100839.03;;;12.23;0.00
76637;BME280;65532;52.124;5.480;2023-05-10T02:31:06;100846.34;;;12.22;0.00
76637;BME280;65532;52.124;5.480;2023-05-10T02:33:33;100844.72;;;12.21;0.00
76637;BME280;65532;52.124;5.480;2023-05-10T02:36:01;100845.69;;;12.15;0.00
76637;BME280;65532;52.124;5.480;2023-05-10T02:38:29;100848.84;;;12.12;0.00
76637;BME280;65532;52.124;5.480;2023-05-10T02:40:58;100843.44;;;12.12;0.00
76637;BME280;65532;52.124;5.480;2023-05-10T02:43:25;100851.56;;;12.12;0.00
76637;BME280;65532;52.124;5.480;2023-05-10T02:45:52;100858.06;;;12.11;0.00
76637;BME280;65532;52.124;5.480;2023-05-10T02:48:19;100860.78;;;12.11;0.00
76637;BME280;65532;52.124;5.480;2023-05-10T02:50:46;100861.28;;;12.08;0.00
76637;BME280;65532;52.124;5.480;2023-05-10T02:53:23;100854.19;;;12.07;0.00
76637;BME280;65532;52.124;5.480;2023-05-10T02:55:52;100853.38;;;12.07;0.00
76637;BME280;65532;52.124;5.480;2023-05-10T02:58:23;100857.41;;;12.04;0.00
76637;BME280;65532;52.124;5.480;2023-05-10T03:00:50;100857.97;;;12.06;0.00
76637;BME280;65532;52.124;5.480;2023-05-10T03:03:16;100859.03;;;12.05;0.00
76637;BME280;65532;52.124;5.480;2023-05-10T03:05:43;100856.81;;;12.02;0.00
76637;BME280;65532;52.124;5.480;2023-05-10T03:08:09;100857.28;;;11.99;0.00
76637;BME280;65532;52.124;5.480;2023-05-10T03:10:42;100864.16;;;11.90;0.00
76637;BME280;65532;52.124;5.480;2023-05-10T03:14:31;100861.34;;;11.85;0.00
76637;BME280;65532;52.124;5.480;2023-05-10T03:16:37;100863.94;;;11.80;0.00
76637;BME280;65532;52.124;5.480;2023-05-10T03:19:26;100866.03;;;11.78;0.00
76637;BME280;65532;52.124;5.480;2023-05-10T03:21:58;100871.44;;;11.78;0.00
76637;BME280;65532;52.124;5.480;2023-05-10T03:24:30;100871.09;;;11.74;0.00
76637;BME280;65532;52.124;5.480;2023-05-10T03:26:59;100877.84;;;11.72;0.00
76637;BME280;65532;52.124;5.480;2023-05-10T03:29:29;100871.00;;;11.69;0.00
76637;BME280;65532;52.124;5.480;2023-05-10T03:31:58;100878.31;;;11.68;0.00
76637;BME280;65532;52.124;5.480;2023-05-10T03:34:29;100881.25;;;11.67;0.00
76637;BME280;65532;52.124;5.480;2023-05-10T03:36:57;100887.50;;;11.67;0.00
76637;BME280;65532;52.124;5.480;2023-05-10T03:39:25;100879.16;;;11.69;0.00
76637;BME280;65532;52.124;5.480;2023-05-10T03:41:55;100872.28;;;11.66;0.00
76637;BME280;65532;52.124;5.480;2023-05-10T03:44:22;100879.00;;;11.64;0.00
76637;BME280;65532;52.124;5.480;2023-05-10T03:46:48;100875.47;;;11.63;0.00
76637;BME280;65532;52.124;5.480;2023-05-10T03:49:15;100882.78;;;11.63;0.00
76637;BME280;65532;52.124;5.480;2023-05-10T03:51:42;100881.13;;;11.62;0.00
76637;BME280;65532;52.124;5.480;2023-05-10T03:54:09;100872.19;;;11.61;0.00
76637;BME280;65532;52.124;5.480;2023-05-10T03:56:35;100869.47;;;11.61;0.00
76637;BME280;65532;52.124;5.480;2023-05-10T03:59:02;100871.34;;;11.61;0.00
76637;BME280;65532;52.124;5.480;2023-05-10T04:01:34;100875.97;;;11.60;0.00
76637;BME280;65532;52.124;5.480;2023-05-10T04:04:00;100877.03;;;11.59;0.00
76637;BME280;65532;52.124;5.480;2023-05-10T04:06:30;100884.09;;;11.60;0.00
76637;BME280;65532;52.124;5.480;2023-05-10T04:08:57;100883.03;;;11.61;0.00
76637;BME280;65532;52.124;5.480;2023-05-10T04:11:26;100878.66;;;11.60;0.00
76637;BME280;65532;52.124;5.480;2023-05-10T04:13:52;100888.44;;;11.61;0.00
76637;BME280;65532;52.124;5.480;2023-05-10T04:16:19;100889.50;;;11.60;0.00
76637;BME280;65532;52.124;5.480;2023-05-10T04:18:45;100890.09;;;11.62;0.00
76637;BME280;65532;52.124;5.480;2023-05-10T04:21:13;100880.91;;;11.63;0.00
76637;BME280;65532;52.124;5.480;2023-05-10T04:23:39;100883.63;;;11.63;0.00
76637;BME280;65532;52.124;5.480;2023-05-10T04:26:06;100892.34;;;11.65;0.00
76637;BME280;65532;52.124;5.480;2023-05-10T04:28:33;100881.72;;;11.64;0.00
76637;BME280;65532;52.124;5.480;2023-05-10T04:31:03;100882.31;;;11.66;0.00
76637;BME280;65532;52.124;5.480;2023-05-10T04:33:31;100882.31;;;11.66;0.00
76637;BME280;65532;52.124;5.480;2023-05-10T04:35:57;100884.78;;;11.67;0.00
76637;BME280;65532;52.124;5.480;2023-05-10T04:38:24;100888.56;;;11.66;0.00
76637;BME280;65532;52.124;5.480;2023-05-10T04:40:51;100888.34;;;11.68;0.00
76637;BME280;65532;52.124;5.480;2023-05-10T04:43:17;100888.94;;;11.70;0.00
76637;BME280;65532;52.124;5.480;2023-05-10T04:45:43;100890.81;;;11.69;0.00
76637;BME280;65532;52.124;5.480;2023-05-10T04:48:10;100895.75;;;11.73;0.00
76637;BME280;65532;52.124;5.480;2023-05-10T04:50:37;100895.53;;;11.74;0.00
76637;BME280;65532;52.124;5.480;2023-05-10T04:53:04;100895.28;;;11.76;0.00
76637;BME280;65532;52.124;5.480;2023-05-10T04:55:30;100900.25;;;11.79;0.00
76637;BME280;65532;52.124;5.480;2023-05-10T04:57:57;100906.03;;;11.82;0.00
76637;BME280;65532;52.124;5.480;2023-05-10T05:00:25;100911.44;;;11.82;0.00
76637;BME280;65532;52.124;5.480;2023-05-10T05:02:51;100910.63;;;11.82;0.00
76637;BME280;65532;52.124;5.480;2023-05-10T05:05:18;100918.31;;;11.85;0.00
76637;BME280;65532;52.124;5.480;2023-05-10T05:07:44;100919.38;;;11.84;0.00
76637;BME280;65532;52.124;5.480;2023-05-10T05:10:11;100912.88;;;11.85;0.00
76637;BME280;65532;52.124;5.480;2023-05-10T05:12:37;100914.28;;;11.87;0.00
76637;BME280;65532;52.124;5.480;2023-05-10T05:15:04;100916.75;;;11.89;0.00
76637;BME280;65532;52.124;5.480;2023-05-10T05:17:34;100910.84;;;11.92;0.00
76637;BME280;65532;52.124;5.480;2023-05-10T05:20:01;100917.44;;;11.96;0.00
76637;BME280;65532;52.124;5.480;2023-05-10T05:22:27;100920.53;;;11.99;0.00
76637;BME280;65532;52.124;5.480;2023-05-10T05:24:55;100918.41;;;12.02;0.00
76637;BME280;65532;52.124;5.480;2023-05-10T05:27:21;100928.19;;;12.03;0.00
76637;BME280;65532;52.124;5.480;2023-05-10T05:29:50;100927.38;;;12.02;0.00
76637;BME280;65532;52.124;5.480;2023-05-10T05:32:18;100933.88;;;12.01;0.00
76637;BME280;65532;52.124;5.480;2023-05-10T05:34:45;100935.75;;;12.01;0.00
76637;BME280;65532;52.124;5.480;2023-05-10T05:37:16;100936.81;;;11.99;0.00
76637;BME280;65532;52.124;5.480;2023-05-10T05:39:43;100927.38;;;12.02;0.00
76637;BME280;65532;52.124;5.480;2023-05-10T05:42:11;100936.69;;;12.06;0.00
76637;BME280;65532;52.124;5.480;2023-05-10T05:44:38;100931.84;;;12.08;0.00
76637;BME280;65532;52.124;5.480;2023-05-10T05:47:05;100934.06;;;12.11;0.00
76637;BME280;65532;52.124;5.480;2023-05-10T05:49:32;100932.16;;;12.12;0.00
76637;BME280;65532;52.124;5.480;2023-05-10T05:52:02;100938.44;;;12.12;0.00
76637;BME280;65532;52.124;5.480;2023-05-10T05:54:30;100940.06;;;12.13;0.00
76637;BME280;65532;52.124;5.480;2023-05-10T05:56:58;100943.41;;;12.15;0.00
76637;BME280;65532;52.124;5.480;2023-05-10T05:59:26;100945.88;;;12.17;0.00
76637;BME280;65532;52.124;5.480;2023-05-10T06:01:53;100940.91;;;12.14;0.00
76637;BME280;65532;52.124;5.480;2023-05-10T06:04:20;100947.97;;;12.15;0.00
76637;BME280;65532;52.124;5.480;2023-05-10T06:06:46;100955.06;;;12.16;0.00
76637;BME280;65532;52.124;5.480;2023-05-10T06:09:13;100957.56;;;12.17;0.00
76637;BME280;65532;52.124;5.480;2023-05-10T06:11:39;100957.56;;;12.17;0.00
76637;BME280;65532;52.124;5.480;2023-05-10T06:14:06;100964.06;;;12.16;0.00
76637;BME280;65532;52.124;5.480;2023-05-10T06:16:34;100969.34;;;12.11;0.00
76637;BME280;65532;52.124;5.480;2023-05-10T06:19:02;100973.13;;;12.10;0.00
76637;BME280;65532;52.124;5.480;2023-05-10T06:21:29;100971.00;;;12.12;0.00
76637;BME280;65532;52.124;5.480;2023-05-10T06:23:56;100977.25;;;12.13;0.00
76637;BME280;65532;52.124;5.480;2023-05-10T06:26:23;100980.34;;;12.16;0.00
76637;BME280;65532;52.124;5.480;2023-05-10T06:28:49;100980.34;;;12.16;0.00
76637;BME280;65532;52.124;5.480;2023-05-10T06:31:15;100973.84;;;12.17;0.00
76637;BME280;65532;52.124;5.480;2023-05-10T06:33:42;100979.28;;;12.17;0.00
76637;BME280;65532;52.124;5.480;2023-05-10T06:36:08;100979.28;;;12.17;0.00
76637;BME280;65532;52.124;5.480;2023-05-10T06:38:35;100975.97;;;12.15;0.00
76637;BME280;65532;52.124;5.480;2023-05-10T06:41:01;100982.56;;;12.19;0.00
76637;BME280;65532;52.124;5.480;2023-05-10T06:43:28;100974.03;;;12.27;0.00
76637;BME280;65532;52.124;5.480;2023-05-10T06:45:55;100986.91;;;12.32;0.00
76637;BME280;65532;52.124;5.480;2023-05-10T06:48:22;100986.44;;;12.35;0.00
76637;BME280;65532;52.124;5.480;2023-05-10T06:50:48;100984.31;;;12.37;0.00
76637;BME280;65532;52.124;5.480;2023-05-10T06:53:15;100983.97;;;12.34;0.00
76637;BME280;65532;52.124;5.480;2023-05-10T06:55:41;100985.84;;;12.33;0.00
76637;BME280;65532;52.124;5.480;2023-05-10T06:58:08;100990.22;;;12.34;0.00
76637;BME280;65532;52.124;5.480;2023-05-10T07:00:34;100993.84;;;12.40;0.00
76637;BME280;65532;52.124;5.480;2023-05-10T07:03:01;100992.44;;;12.49;0.00
76637;BME280;65532;52.124;5.480;2023-05-10T07:05:27;101000.66;;;12.54;0.00
76637;BME280;65532;52.124;5.480;2023-05-10T07:07:54;100999.03;;;12.53;0.00
76637;BME280;65532;52.124;5.480;2023-05-10T07:10:20;101006.69;;;12.56;0.00
76637;BME280;65532;52.124;5.480;2023-05-10T07:12:47;101006.09;;;12.54;0.00
76637;BME280;65532;52.124;5.480;2023-05-10T07:15:14;101011.50;;;12.66;0.00
76637;BME280;65532;52.124;5.480;2023-05-10T07:17:42;101012.91;;;12.68;0.00
76637;BME280;65532;52.124;5.480;2023-05-10T07:20:11;101018.34;;;12.68;7.87
76637;BME280;65532;52.124;5.480;2023-05-10T07:22:38;101006.50;;;12.74;15.90
76637;BME280;65532;52.124;5.480;2023-05-10T07:25:05;101008.28;;;12.80;19.40
76637;BME280;65532;52.124;5.480;2023-05-10T07:27:32;101015.44;;;12.86;22.15
76637;BME280;65532;52.124;5.480;2023-05-10T07:29:58;101020.88;;;12.86;27.44
76637;BME280;65532;52.124;5.480;2023-05-10T07:32:25;101020.63;;;12.88;31.91
76637;BME280;65532;52.124;5.480;2023-05-10T07:34:52;101028.94;;;12.81;36.92
76637;BME280;65532;52.124;5.480;2023-05-10T07:37:18;101032.72;;;12.80;38.37
76637;BME280;65532;52.124;5.480;2023-05-10T07:39:45;101034.88;;;12.78;42.50
76637;BME280;65532;52.124;5.480;2023-05-10T07:42:11;101039.44;;;12.78;45.08
76637;BME280;65532;52.124;5.480;2023-05-10T07:44:38;101040.38;;;12.83;44.13
76637;BME280;65532;52.124;5.480;2023-05-10T07:47:04;101038.91;;;12.93;42.43
76637;BME280;65532;52.124;5.480;2023-05-10T07:49:30;101047.69;;;12.95;45.04
76637;BME280;65532;52.124;5.480;2023-05-10T07:51:57;101050.00;;;13.03;47.38
76637;BME280;65532;52.124;5.480;2023-05-10T07:54:23;101050.69;;;13.10;50.44
76637;BME280;65532;52.124;5.480;2023-05-10T07:56:50;101049.97;;;13.14;58.56
76637;BME280;65532;52.124;5.480;2023-05-10T07:59:17;101052.44;;;13.16;61.84
76637;BME280;65532;52.124;5.480;2023-05-10T08:01:44;101064.00;;;13.23;64.76
76637;BME280;65532;52.124;5.480;2023-05-10T08:04:11;101062.47;;;13.27;67.83
76637;BME280;65532;52.124;5.480;2023-05-10T08:06:38;101064.00;;;13.23;70.76
76637;BME280;65532;52.124;5.480;2023-05-10T08:09:05;101068.03;;;13.21;73.67
76637;BME280;65532;52.124;5.480;2023-05-10T08:11:31;101065.19;;;13.27;73.82
76637;BME280;65532;52.124;5.480;2023-05-10T08:14:00;101065.59;;;13.36;73.87
76637;BME280;65532;52.124;5.480;2023-05-10T08:16:26;101078.88;;;13.32;78.08
76637;BME280;65532;52.124;5.480;2023-05-10T08:18:53;101071.59;;;13.21;79.30
76637;BME280;65532;52.124;5.480;2023-05-10T08:21:21;101068.81;;;12.93;81.98
76637;BME280;65532;52.124;5.480;2023-05-10T08:23:48;101064.41;;;13.03;77.22
76637;BME280;65532;52.124;5.480;2023-05-10T08:26:15;101069.00;;;13.26;74.65
76637;BME280;65532;52.124;5.480;2023-05-10T08:28:41;101067.00;;;13.38;75.46
76637;BME280;65532;52.124;5.480;2023-05-10T08:31:08;101076.44;;;13.47;76.82
76637;BME280;65532;52.124;5.480;2023-05-10T08:33:34;101070.00;;;13.54;78.31
76637;BME280;65532;52.124;5.480;2023-05-10T08:36:01;101077.91;;;13.55;80.04
76637;BME280;65532;52.124;5.480;2023-05-10T08:38:27;101085.69;;;13.63;80.20
76637;BME280;65532;52.124;5.480;2023-05-10T08:40:54;101091.47;;;13.67;81.83
76637;BME280;65532;52.124;5.480;2023-05-10T08:43:27;101097.47;;;13.69;83.39
76637;BME280;65532;52.124;5.480;2023-05-10T08:45:55;101096.41;;;13.70;83.87
76637;BME280;65532;52.124;5.480;2023-05-10T08:48:24;101099.56;;;13.62;84.31
76637;BME280;65532;52.124;5.480;2023-05-10T08:50:53;101104.22;;;13.49;85.14
76637;BME280;65532;52.124;5.480;2023-05-10T08:53:22;101114.19;;;13.44;84.35
76637;BME280;65532;52.124;5.480;2023-05-10T08:55:51;101108.00;;;13.48;84.06
76637;BME280;65532;52.124;5.480;2023-05-10T08:58:19;101103.72;;;13.53;83.92
76637;BME280;65532;52.124;5.480;2023-05-10T09:00:48;101112.00;;;13.58;83.54
76637;BME280;65532;52.124;5.480;2023-05-10T09:03:14;101114.72;;;13.58;82.89
76637;BME280;65532;52.124;5.480;2023-05-10T09:05:41;101121.00;;;13.58;82.74
76637;BME280;65532;52.124;5.480;2023-05-10T09:08:08;101117.53;;;13.63;82.79
76637;BME280;65532;52.124;5.480;2023-05-10T09:10:35;101109.03;;;13.59;83.08
76637;BME280;65532;52.124;5.480;2023-05-10T09:13:03;101108.94;;;13.71;82.69
76637;BME280;65532;52.124;5.480;2023-05-10T09:15:30;101106.91;;;13.95;83.01
76637;BME280;65532;52.124;5.480;2023-05-10T09:17:57;101109.56;;;14.06;85.24
76637;BME280;65532;52.124;5.480;2023-05-10T09:20:25;101119.03;;;14.37;85.63
76637;BME280;65532;52.124;5.480;2023-05-10T09:22:52;101112.59;;;14.60;87.86
76637;BME280;65532;52.124;5.480;2023-05-10T09:25:18;101114.88;;;14.68;89.23
76637;BME280;65532;52.124;5.480;2023-05-10T09:27:46;101124.72;;;14.70;90.45
76637;BME280;65532;52.124;5.480;2023-05-10T09:30:25;101120.47;;;14.79;91.29
76637;BME280;65532;52.124;5.480;2023-05-10T09:32:52;101127.69;;;14.90;91.26
76637;BME280;65532;52.124;5.480;2023-05-10T09:35:21;101129.34;;;14.91;91.78
76637;BME280;65532;52.124;5.480;2023-05-10T09:37:52;101135.50;;;15.03;91.69
76637;BME280;65532;52.124;5.480;2023-05-10T09:40:21;101129.88;;;14.88;91.91
76637;BME280;65532;52.124;5.480;2023-05-10T09:42:59;101134.06;;;15.17;91.97
76637;BME280;65532;52.124;5.480;2023-05-10T09:45:31;101141.41;;;14.95;91.30
76637;BME280;65532;52.124;5.480;2023-05-10T09:47:59;101135.94;;;14.95;92.05
76637;BME280;65532;52.124;5.480;2023-05-10T09:50:27;101139.94;;;15.09;91.05
76637;BME280;65532;52.124;5.480;2023-05-10T09:52:55;101143.38;;;15.70;90.85
76637;BME280;65532;52.124;5.480;2023-05-10T09:55:39;101144.22;;;15.98;88.89
76637;BME280;65532;52.124;5.480;2023-05-10T09:58:06;101139.81;;;16.29;88.41
76637;BME280;65532;52.124;5.480;2023-05-10T10:00:38;101150.16;;;16.59;87.82
76637;BME280;65532;52.124;5.480;2023-05-10T10:03:05;101157.28;;;16.65;87.34
76637;BME280;65532;52.124;5.480;2023-05-10T10:05:34;101155.75;;;16.79;86.64
76637;BME280;65532;52.124;5.480;2023-05-10T10:08:03;101153.50;;;16.71;85.43
76637;BME280;65532;52.124;5.480;2023-05-10T10:10:32;101162.19;;;16.63;85.67
76637;BME280;65532;52.124;5.480;2023-05-10T10:12:59;101157.63;;;16.36;85.62
76637;BME280;65532;52.124;5.480;2023-05-10T10:15:26;101163.53;;;16.23;85.39
76637;BME280;65532;52.124;5.480;2023-05-10T10:17:53;101161.81;;;16.12;85.51
76637;BME280;65532;52.124;5.480;2023-05-10T10:20:22;101166.72;;;16.10;85.77
76637;BME280;65532;52.124;5.480;2023-05-10T10:22:49;101168.28;;;16.06;86.42
76637;BME280;65532;52.124;5.480;2023-05-10T10:25:16;101168.81;;;16.03;87.61
76637;BME280;65532;52.124;5.480;2023-05-10T10:35:42;101167.56;;;16.15;88.48
76637;BME280;65532;52.124;5.480;2023-05-10T10:38:12;101172.22;;;16.15;88.01
76637;BME280;65532;52.124;5.480;2023-05-10T10:40:39;101174.97;;;16.20;88.16
76637;BME280;65532;52.124;5.480;2023-05-10T10:43:21;101169.25;;;16.22;88.22
76637;BME280;65532;52.124;5.480;2023-05-10T10:48:36;101171.16;;;16.21;87.60
76637;BME280;65532;52.124;5.480;2023-05-10T10:51:02;101173.88;;;16.16;87.78
76637;BME280;65532;52.124;5.480;2023-05-10T10:53:29;101178.22;;;16.12;87.17
76637;BME280;65532;52.124;5.480;2023-05-10T10:56:12;101178.13;;;16.07;87.06
76637;BME280;65532;52.124;5.480;2023-05-10T10:58:42;101177.03;;;16.03;87.46
76637;BME280;65532;52.124;5.480;2023-05-10T11:01:16;101175.41;;;16.07;87.32
76637;BME280;65532;52.124;5.480;2023-05-10T11:06:32;101174.81;;;16.32;86.99
76637;BME280;65532;52.124;5.480;2023-05-10T11:09:05;101180.31;;;16.37;86.81
76637;BME280;65532;52.124;5.480;2023-05-10T11:11:34;101181.44;;;16.41;86.67
76637;BME280;65532;52.124;5.480;2023-05-10T11:14:07;101179.03;;;16.44;86.27
76637;BME280;65532;52.124;5.480;2023-05-10T11:16:43;101185.06;;;16.52;85.47
76637;BME280;65532;52.124;5.480;2023-05-10T11:19:12;101178.88;;;16.61;86.29
76637;BME280;65532;52.124;5.480;2023-05-10T11:21:47;101185.50;;;16.70;86.39
76637;BME280;65532;52.124;5.480;2023-05-10T11:24:17;101184.22;;;16.83;85.59
76637;BME280;65532;52.124;5.480;2023-05-10T11:26:44;101177.63;;;16.79;85.47
76637;BME280;65532;52.124;5.480;2023-05-10T11:29:13;101184.72;;;16.75;85.19
76637;BME280;65532;52.124;5.480;2023-05-10T11:31:46;101193.88;;;16.59;85.55
76637;BME280;65532;52.124;5.480;2023-05-10T11:34:28;101190.16;;;16.38;85.30
76637;BME280;65532;52.124;5.480;2023-05-10T11:36:56;101185.50;;;16.38;85.92
76637;BME280;65532;52.124;5.480;2023-05-10T11:39:28;101186.03;;;16.35;86.32
76637;BME280;65532;52.124;5.480;2023-05-10T11:41:55;101192.97;;;16.48;85.88
76637;BME280;65532;52.124;5.480;2023-05-10T11:44:22;101187.06;;;16.61;85.33
76637;BME280;65532;52.124;5.480;2023-05-10T11:46:49;101178.72;;;16.78;84.38
76637;BME280;65532;52.124;5.480;2023-05-10T11:49:16;101187.59;;;16.95;85.34
76637;BME280;65532;52.124;5.480;2023-05-10T11:51:42;101187.72;;;17.21;84.90
76637;BME280;65532;52.124;5.480;2023-05-10T11:54:10;101189.44;;;17.37;84.20
76637;BME280;65532;52.124;5.480;2023-05-10T11:56:40;101185.59;;;17.38;83.11
76637;BME280;65532;52.124;5.480;2023-05-10T11:59:07;101176.63;;;17.63;82.78
76637;BME280;65532;52.124;5.480;2023-05-10T12:01:35;101194.41;;;17.60;81.80
76637;BME280;65532;52.124;5.480;2023-05-10T12:04:01;101197.78;;;17.73;81.44
76637;BME280;65532;52.124;5.480;2023-05-10T12:06:31;101187.97;;;17.87;80.43
76637;BME280;65532;52.124;5.480;2023-05-10T12:08:58;101193.16;;;17.88;79.66
76637;BME280;65532;52.124;5.480;2023-05-10T12:11:27;101191.78;;;17.91;80.43
76637;BME280;65532;52.124;5.480;2023-05-10T12:13:55;101195.06;;;17.88;80.47
76637;BME280;65532;52.124;5.480;2023-05-10T12:16:24;101198.06;;;17.81;79.55
76637;BME280;65532;52.124;5.480;2023-05-10T12:18:53;101192.63;;;17.86;79.76
76637;BME280;65532;52.124;5.480;2023-05-10T12:21:21;101202.75;;;17.86;79.13
76637;BME280;65532;52.124;5.480;2023-05-10T12:23:52;101201.66;;;17.87;80.30
76637;BME280;65532;52.124;5.480;2023-05-10T12:26:23;101191.25;;;17.89;80.76
76637;BME280;65532;52.124;5.480;2023-05-10T12:28:50;101184.94;;;17.88;80.77
76637;BME280;65532;52.124;5.480;2023-05-10T12:31:17;101181.66;;;17.96;80.86
76637;BME280;65532;52.124;5.480;2023-05-10T12:33:44;101195.91;;;18.09;80.52
76637;BME280;65532;52.124;5.480;2023-05-10T12:36:13;101186.84;;;17.93;78.74
76637;BME280;65532;52.124;5.480;2023-05-10T12:38:46;101193.44;;;18.12;80.40
76637;BME280;65532;52.124;5.480;2023-05-10T12:41:17;101196.75;;;18.40;78.61
76637;BME280;65532;52.124;5.480;2023-05-10T12:43:45;101196.75;;;18.50;77.82
76637;BME280;65532;52.124;5.480;2023-05-10T12:46:16;101188.56;;;18.65;75.65
76637;BME280;65532;52.124;5.480;2023-05-10T12:48:44;101194.00;;;18.75;74.04
76637;BME280;65532;52.124;5.480;2023-05-10T12:51:12;101191.53;;;18.84;73.89
76637;BME280;65532;52.124;5.480;2023-05-10T12:53:41;101195.63;;;18.87;73.79
76637;BME280;65532;52.124;5.480;2023-05-10T12:56:11;101196.75;;;18.80;75.13
76637;BME280;65532;52.124;5.480;2023-05-10T12:58:38;101203.84;;;18.92;72.31
76637;BME280;65532;52.124;5.480;2023-05-10T13:01:05;101203.53;;;19.08;73.08
76637;BME280;65532;52.124;5.480;2023-05-10T13:03:31;101204.88;;;19.26;72.55
76637;BME280;65532;52.124;5.480;2023-05-10T13:05:58;101204.97;;;18.96;70.74
76637;BME280;65532;52.124;5.480;2023-05-10T13:08:24;101213.72;;;18.98;72.94
76637;BME280;65532;52.124;5.480;2023-05-10T13:10:51;101210.72;;;18.99;72.45
76637;BME280;65532;52.124;5.480;2023-05-10T13:13:18;101210.16;;;18.92;72.97
76637;BME280;65532;52.124;5.480;2023-05-10T13:15:44;101209.06;;;18.98;72.24
76637;BME280;65532;52.124;5.480;2023-05-10T13:18:10;101210.72;;;18.89;72.56
76637;BME280;65532;52.124;5.480;2023-05-10T13:20:37;101208.81;;;18.95;73.21
76637;BME280;65532;52.124;5.480;2023-05-10T13:23:04;101216.75;;;18.86;72.80
76637;BME280;65532;52.124;5.480;2023-05-10T13:25:30;101223.91;;;18.56;72.88